Time;durP1;ratioP1;P1;durP2;ratioP2;P2;SDS_P1;SDS_P2;PMS_P1;PMS_P2;Temp;Humidity;BMP_temperature;BMP_pressure;BME280_temperature;BME280_humidity;BME280_pressure;Samples;Min_cycle;Max_cycle;Signal;HPM_P1;HPM_P2
2021/11/22 00:01:08;;;;;;;13.13;1.75;;;;;;;12.53;44.60;101940.34;4426006;32;20131;-70
2021/11/22 00:03:35;;;;;;;5.45;1.40;;;;;;;12.72;44.25;101939.69;4425063;32;20087;-70
2021/11/22 00:06:01;;;;;;;8.48;1.98;;;;;;;12.72;44.23;101944.53;4421970;32;20095;-70
2021/11/22 00:08:26;;;;;;;6.93;2.28;;;;;;;12.55;44.42;101937.09;4420923;32;20077;-70
2021/11/22 00:10:52;;;;;;;8.70;2.10;;;;;;;12.50;44.39;101941.19;4424026;32;20490;-70
2021/11/22 00:13:19;;;;;;;6.57;2.45;;;;;;;12.42;44.65;101942.50;4423655;32;20410;-70
2021/11/22 00:15:45;;;;;;;11.10;2.47;;;;;;;12.42;44.70;101953.78;4420709;32;20474;-70
2021/11/22 00:18:10;;;;;;;10.50;2.58;;;;;;;12.36;44.84;101947.00;4422386;32;20081;-70
2021/11/22 00:20:36;;;;;;;9.00;2.22;;;;;;;12.26;44.92;101953.59;4419180;32;20093;-70
2021/11/22 00:23:03;;;;;;;8.55;1.62;;;;;;;12.27;44.98;101955.19;4422473;32;20048;-70
2021/11/22 00:25:29;;;;;;;7.25;1.80;;;;;;;12.38;44.90;101944.56;4424436;32;20450;-70
2021/11/22 00:27:55;;;;;;;9.38;1.65;;;;;;;12.30;44.92;101954.34;4420071;32;20030;-70
2021/11/22 00:30:22;;;;;;;7.87;1.62;;;;;;;12.35;44.92;101964.38;4427511;32;20089;-70
2021/11/22 00:32:47;;;;;;;14.38;2.45;;;;;;;12.35;44.87;101965.16;4420990;32;20104;-70
2021/11/22 00:35:14;;;;;;;9.05;1.80;;;;;;;12.26;45.16;101975.34;4422260;32;20096;-70
2021/11/22 00:37:41;;;;;;;5.12;1.42;;;;;;;12.30;45.01;101964.84;4421470;32;20455;-70
2021/11/22 00:40:10;;;;;;;9.25;1.92;;;;;;;12.33;45.03;101972.47;4425518;32;20409;-70
2021/11/22 00:42:37;;;;;;;12.25;3.00;;;;;;;12.51;44.83;101973.03;4423328;32;20154;-70
2021/11/22 00:45:04;;;;;;;10.05;3.05;;;;;;;12.33;45.08;101986.59;4422149;32;20207;-70
2021/11/22 00:47:30;;;;;;;10.90;1.85;;;;;;;12.31;44.92;101992.66;4421351;32;20106;-70
2021/11/22 00:49:56;;;;;;;7.45;1.70;;;;;;;12.21;45.01;101990.72;4422030;32;20433;-70
2021/11/22 00:52:22;;;;;;;5.55;1.45;;;;;;;12.18;45.24;101985.13;4420308;32;20073;-70
2021/11/22 00:54:47;;;;;;;7.07;2.00;;;;;;;12.20;45.30;101985.50;4421412;32;20026;-70
2021/11/22 00:57:13;;;;;;;9.63;2.12;;;;;;;12.17;45.64;101994.81;4423406;32;20029;-70
2021/11/22 00:59:38;;;;;;;5.55;1.95;;;;;;;12.25;45.20;101996.34;4421863;32;20139;-70
2021/11/22 01:02:04;;;;;;;7.82;1.80;;;;;;;12.28;45.15;101996.31;4422952;32;20056;-70
2021/11/22 01:04:30;;;;;;;6.97;2.40;;;;;;;12.21;45.16;101998.41;4424112;32;20042;-70
2021/11/22 01:06:58;;;;;;;7.53;2.20;;;;;;;12.27;45.02;102002.38;4423138;32;20041;-70
2021/11/22 01:09:24;;;;;;;11.90;2.20;;;;;;;12.15;45.18;101998.03;4423896;32;20149;-70
2021/11/22 01:11:49;;;;;;;9.32;2.40;;;;;;;12.21;45.04;102002.00;4422149;32;20037;-70
2021/11/22 01:14:15;;;;;;;10.48;2.10;;;;;;;12.15;45.04;102003.69;4421997;32;20120;-70
2021/11/22 01:16:44;;;;;;;9.35;2.00;;;;;;;12.12;45.02;102010.16;4418122;32;20096;-70
2021/11/22 01:19:10;;;;;;;8.52;1.87;;;;;;;12.00;45.22;102016.37;4421491;32;20042;-70
2021/11/22 01:21:35;;;;;;;8.23;1.37;;;;;;;12.00;45.19;102019.97;4423221;32;20130;-70
2021/11/22 01:24:01;;;;;;;11.90;1.27;;;;;;;11.79;45.82;102013.72;4422031;32;20045;-70
2021/11/22 01:26:27;;;;;;;7.40;1.60;;;;;;;11.91;45.55;102018.88;4422813;32;20125;-70
2021/11/22 01:28:53;;;;;;;14.35;7.22;;;;;;;11.96;45.42;102022.03;4422933;32;20056;-70
2021/11/22 01:31:19;;;;;;;9.75;3.00;;;;;;;12.05;45.19;102024.34;4422224;32;20136;-70
2021/11/22 01:33:45;;;;;;;6.43;1.92;;;;;;;12.15;45.07;102019.84;4421799;32;20125;-70
2021/11/22 01:36:10;;;;;;;9.10;1.27;;;;;;;12.05;45.07;102028.00;4423145;32;20478;-70
2021/11/22 01:38:36;;;;;;;5.85;1.95;;;;;;;12.10;44.98;102035.19;4422976;32;20411;-70
2021/11/22 01:41:03;;;;;;;8.07;1.50;;;;;;;11.97;45.00;102031.31;4420550;32;20065;-70
2021/11/22 01:43:30;;;;;;;5.65;1.37;;;;;;;12.03;45.27;102021.94;4422358;32;20080;-70
2021/11/22 01:45:56;;;;;;;6.82;1.30;;;;;;;12.05;45.19;102042.09;4421650;32;20064;-70
2021/11/22 01:48:22;;;;;;;11.40;1.50;;;;;;;11.97;45.26;102043.37;4420230;32;20033;-70
2021/11/22 01:50:49;;;;;;;10.60;2.20;;;;;;;12.03;45.21;102038.09;4420317;32;20030;-70
2021/11/22 01:53:16;;;;;;;7.60;1.80;;;;;;;12.05;45.12;102044.09;4422054;32;20089;-70
2021/11/22 01:55:43;;;;;;;8.70;2.10;;;;;;;11.94;45.17;102049.06;4422407;32;20056;-70
2021/11/22 01:58:09;;;;;;;8.05;1.92;;;;;;;12.02;45.11;102045.75;4423244;32;20136;-70
2021/11/22 02:00:42;;;;;;;9.02;1.60;;;;;;;11.88;45.49;102039.44;4422891;32;20090;-70
2021/11/22 02:03:08;;;;;;;8.82;1.83;;;;;;;12.12;44.98;102048.91;4421826;32;20091;-70
2021/11/22 02:05:35;;;;;;;7.07;1.90;;;;;;;11.76;45.33;102054.03;4419809;32;20455;-70
2021/11/22 02:08:02;;;;;;;11.02;1.85;;;;;;;11.96;45.27;102060.72;4422652;32;20062;-70
2021/11/22 02:10:28;;;;;;;8.10;1.92;;;;;;;11.86;45.39;102068.06;4422358;32;20029;-70
2021/11/22 02:12:54;;;;;;;8.82;2.30;;;;;;;11.78;45.31;102062.88;4419972;32;20073;-70
2021/11/22 02:15:21;;;;;;;8.30;2.40;;;;;;;11.73;45.50;102061.28;4422904;32;20045;-70
2021/11/22 02:17:49;;;;;;;16.92;4.15;;;;;;;11.67;45.40;102068.63;4420638;32;21337;-70
2021/11/22 02:20:18;;;;;;;14.70;3.08;;;;;;;11.84;45.44;102062.03;4419714;32;20468;-70
2021/11/22 02:22:45;;;;;;;9.18;2.58;;;;;;;11.80;45.52;102060.44;4419856;32;20030;-70
2021/11/22 02:25:13;;;;;;;10.90;2.33;;;;;;;11.64;45.66;102060.19;4420857;32;20079;-70
2021/11/22 02:27:39;;;;;;;6.85;1.70;;;;;;;11.63;45.65;102067.03;4420780;32;20115;-70
2021/11/22 02:30:07;;;;;;;7.35;2.12;;;;;;;11.51;45.96;102064.69;4422758;32;20029;-70
2021/11/22 02:32:36;;;;;;;11.00;1.92;;;;;;;11.60;45.87;102065.03;4421690;32;20088;-70
2021/11/22 02:35:02;;;;;;;8.65;1.60;;;;;;;11.58;45.91;102073.06;4423868;32;20104;-70
2021/11/22 02:37:27;;;;;;;12.77;2.08;;;;;;;11.39;45.84;102065.16;4423023;32;20081;-70
2021/11/22 02:39:53;;;;;;;9.20;2.28;;;;;;;11.31;45.89;102077.69;4420487;32;20121;-70
2021/11/22 02:44:59;;;;;;;11.88;2.17;;;;;;;11.61;45.50;102089.16;3981053;32;15134867;-69
2021/11/22 02:47:25;;;;;;;7.25;2.83;;;;;;;11.61;45.50;102089.16;4439324;32;20457;-69
2021/11/22 02:49:52;;;;;;;12.05;3.10;;;;;;;11.25;46.07;102068.84;4435449;32;20410;-70
2021/11/22 02:52:18;;;;;;;5.37;2.50;;;;;;;11.20;46.08;102074.13;4438727;32;20082;-69
2021/11/22 02:54:45;;;;;;;8.40;2.05;;;;;;;11.24;45.97;102070.09;4440558;32;20103;-69
2021/11/22 02:57:12;;;;;;;13.05;2.65;;;;;;;11.41;46.02;102069.16;4435964;32;20481;-71
2021/11/22 02:59:40;;;;;;;9.95;2.25;;;;;;;11.32;45.98;102066.00;4437178;32;20400;-70
2021/11/22 03:02:08;;;;;;;7.97;2.35;;;;;;;11.25;46.01;102074.50;4437690;32;20080;-71
2021/11/22 03:04:36;;;;;;;5.30;1.75;;;;;;;11.30;45.92;102087.34;4435723;32;20073;-69
2021/11/22 03:07:03;;;;;;;10.77;2.00;;;;;;;11.28;45.82;102081.31;4434162;32;20100;-69
2021/11/22 03:09:29;;;;;;;10.70;2.50;;;;;;;11.17;45.91;102083.41;4435994;32;20038;-71
2021/11/22 03:11:56;;;;;;;8.20;2.10;;;;;;;11.12;46.13;102081.00;4432447;32;20414;-70
2021/11/22 03:14:24;;;;;;;10.52;2.53;;;;;;;11.24;45.91;102086.19;4435024;32;20093;-70
2021/11/22 03:16:50;;;;;;;13.55;2.30;;;;;;;10.98;46.07;102084.69;4437157;32;20017;-70
2021/11/22 03:19:18;;;;;;;14.75;1.92;;;;;;;10.98;45.83;102087.50;4435554;32;20081;-70
2021/11/22 03:21:44;;;;;;;11.38;1.90;;;;;;;10.98;45.81;102093.12;4437167;32;20057;-70
2021/11/22 03:24:10;;;;;;;6.95;1.70;;;;;;;10.53;46.47;102091.28;4436613;32;20013;-70
2021/11/22 03:26:36;;;;;;;8.88;1.77;;;;;;;10.70;46.47;102092.44;4437051;32;20802;-70
2021/11/22 03:29:02;;;;;;;16.25;2.58;;;;;;;10.82;46.03;102104.06;4438963;32;20152;-70
2021/11/22 03:31:28;;;;;;;22.55;2.17;;;;;;;10.75;46.21;102100.47;4438452;32;20077;-70
2021/11/22 03:33:53;;;;;;;10.80;1.58;;;;;;;10.67;46.18;102105.31;4438165;32;20069;-70
2021/11/22 03:36:19;;;;;;;9.63;2.00;;;;;;;10.64;46.25;102103.31;4438962;32;20410;-70
2021/11/22 03:38:45;;;;;;;5.20;1.60;;;;;;;10.62;46.18;102100.13;4438021;32;20026;-70
2021/11/22 03:41:13;;;;;;;6.05;1.52;;;;;;;10.75;46.17;102106.91;4433865;32;20911;-70
2021/11/22 03:43:57;;;;;;;6.72;1.80;;;;;;;10.74;46.22;102110.12;4438334;32;20053;-70
2021/11/22 03:46:23;;;;;;;6.72;1.55;;;;;;;10.67;46.36;102101.69;4436687;32;20095;-70
2021/11/22 03:48:49;;;;;;;9.40;1.70;;;;;;;10.68;45.98;102108.94;4437532;32;20442;-70
2021/11/22 03:51:17;;;;;;;9.98;1.52;;;;;;;10.78;46.32;102108.09;4437754;32;20150;-70
2021/11/22 03:53:43;;;;;;;19.05;3.33;;;;;;;10.63;46.27;102098.09;4435744;32;20030;-70
2021/11/22 03:56:09;;;;;;;7.25;1.65;;;;;;;10.76;46.26;102107.69;4428310;32;20483;-70
2021/11/22 03:58:35;;;;;;;8.18;2.30;;;;;;;10.72;46.45;102107.72;4424280;32;20033;-70
2021/11/22 04:01:00;;;;;;;11.18;2.00;;;;;;;10.72;46.22;102115.34;4426860;32;20018;-70
2021/11/22 04:03:26;;;;;;;6.72;2.20;;;;;;;10.66;46.31;102117.78;4422325;32;20190;-70
2021/11/22 04:05:52;;;;;;;11.18;3.00;;;;;;;10.42;46.92;102112.19;4425768;32;20115;-70
2021/11/22 04:08:18;;;;;;;12.35;2.50;;;;;;;10.65;46.48;102112.56;4427401;32;20034;-70
2021/11/22 04:10:44;;;;;;;9.10;2.33;;;;;;;10.77;46.11;102110.09;4426382;32;20145;-70
2021/11/22 04:13:20;;;;;;;15.02;2.25;;;;;;;10.66;46.46;102111.34;4423362;32;20140;-70
2021/11/22 04:15:56;;;;;;;8.30;2.03;;;;;;;10.65;46.05;102110.53;4423383;32;20091;-70
2021/11/22 04:18:28;;;;;;;7.53;2.08;;;;;;;10.61;46.26;102108.97;4426561;32;20112;-70
2021/11/22 04:21:00;;;;;;;15.05;2.17;;;;;;;10.67;46.22;102113.75;4427873;32;20102;-70
2021/11/22 04:23:33;;;;;;;7.50;2.00;;;;;;;10.49;46.49;102115.03;4428249;32;20094;-70
2021/11/22 04:25:59;;;;;;;6.55;2.30;;;;;;;10.51;46.36;102113.41;4425874;32;20025;-70
2021/11/22 04:28:25;;;;;;;11.23;2.42;;;;;;;10.56;46.13;102110.19;4424752;32;20476;-70
2021/11/22 04:30:52;;;;;;;10.25;2.72;;;;;;;10.58;46.33;102119.00;4425591;32;20046;-70
2021/11/22 04:33:18;;;;;;;7.97;1.50;;;;;;;10.55;46.20;102114.19;4425683;32;20056;-70
2021/11/22 04:35:43;;;;;;;6.70;1.80;;;;;;;10.45;46.29;102123.47;4428419;32;20481;-70
2021/11/22 04:38:09;;;;;;;15.27;2.00;;;;;;;10.32;46.50;102121.47;4425448;32;20037;-70
2021/11/22 04:40:35;;;;;;;7.37;1.55;;;;;;;10.48;46.21;102119.84;4427895;32;20475;-70
2021/11/22 04:43:01;;;;;;;9.88;1.70;;;;;;;10.52;46.22;102123.44;4421353;32;20050;-70
2021/11/22 04:45:29;;;;;;;5.68;1.73;;;;;;;10.43;46.55;102125.09;4425100;32;20076;-70
2021/11/22 04:47:57;;;;;;;6.12;1.60;;;;;;;10.48;46.31;102121.84;4423394;32;20127;-70
2021/11/22 04:50:23;;;;;;;10.95;1.40;;;;;;;10.41;46.64;102119.03;4425995;32;20081;-70
2021/11/22 04:52:50;;;;;;;9.77;1.60;;;;;;;10.29;46.55;102123.09;4423995;32;20084;-70
2021/11/22 04:55:18;;;;;;;7.95;1.95;;;;;;;10.27;46.72;102127.53;4424777;32;20042;-70
2021/11/22 04:57:44;;;;;;;11.95;2.75;;;;;;;10.40;46.66;102131.53;4423644;32;20109;-70
2021/11/22 05:00:11;;;;;;;3.28;1.30;;;;;;;10.31;46.75;102134.72;4427711;32;20049;-70
2021/11/22 05:02:39;;;;;;;6.97;1.50;;;;;;;10.37;46.71;102129.50;4422807;32;20068;-70
2021/11/22 05:05:07;;;;;;;11.02;1.48;;;;;;;10.37;46.77;102132.31;4426965;32;20129;-70
2021/11/22 05:07:34;;;;;;;8.98;2.35;;;;;;;10.49;46.67;102141.13;4425198;32;20078;-70
2021/11/22 05:10:00;;;;;;;6.62;1.50;;;;;;;10.39;46.94;102135.53;4427805;32;20034;-70
2021/11/22 05:12:25;;;;;;;9.30;1.48;;;;;;;10.27;47.12;102144.41;4425945;32;20060;-70
2021/11/22 05:14:51;;;;;;;7.37;1.37;;;;;;;10.25;47.10;102152.44;4421885;32;20104;-70
2021/11/22 05:17:17;;;;;;;5.90;1.35;;;;;;;10.31;46.78;102142.37;4424311;32;20440;-70
2021/11/22 05:19:43;;;;;;;14.98;2.33;;;;;;;10.34;46.72;102148.00;4424893;32;20083;-70
2021/11/22 05:22:12;;;;;;;13.13;2.15;;;;;;;10.26;46.91;102154.03;4425963;32;20053;-70
2021/11/22 05:24:38;;;;;;;11.35;1.77;;;;;;;10.29;47.00;102159.66;4424385;32;20136;-70
2021/11/22 05:27:04;;;;;;;11.95;2.00;;;;;;;10.29;46.77;102161.66;4423720;32;20475;-70
2021/11/22 05:29:31;;;;;;;10.43;2.10;;;;;;;10.27;46.82;102164.88;4424715;32;20226;-70
2021/11/22 05:31:57;;;;;;;9.50;1.73;;;;;;;10.27;46.92;102162.06;4426350;32;20042;-70
2021/11/22 05:34:23;;;;;;;10.98;1.92;;;;;;;10.15;46.92;102162.47;4422245;32;20029;-70
2021/11/22 05:36:49;;;;;;;6.43;1.60;;;;;;;10.19;46.97;102163.28;4426660;32;20070;-70
2021/11/22 05:39:15;;;;;;;8.48;2.53;;;;;;;10.20;46.94;102169.69;4422409;32;20098;-70
2021/11/22 05:41:41;;;;;;;10.35;1.92;;;;;;;10.22;46.92;102170.94;4424353;32;20053;-70
2021/11/22 05:44:07;;;;;;;8.57;1.85;;;;;;;10.27;46.98;102172.53;4425443;32;20103;-70
2021/11/22 05:46:33;;;;;;;8.68;1.85;;;;;;;10.29;46.78;102176.56;4427814;32;20196;-70
2021/11/22 05:48:58;;;;;;;10.68;2.03;;;;;;;10.27;46.84;102186.59;4423467;32;20371;-70
2021/11/22 05:51:26;;;;;;;12.10;2.28;;;;;;;10.25;46.97;102186.19;4424416;32;20096;-70
2021/11/22 05:53:52;;;;;;;8.52;3.05;;;;;;;10.32;46.76;102187.00;4425985;32;20120;-70
2021/11/22 05:56:18;;;;;;;7.25;2.53;;;;;;;10.30;46.82;102188.59;4424326;32;20042;-70
2021/11/22 05:58:45;;;;;;;11.43;4.05;;;;;;;10.25;46.75;102192.63;4422453;32;20064;-70
2021/11/22 06:01:13;;;;;;;10.20;3.05;;;;;;;10.32;46.69;102191.81;4424112;32;20475;-70
2021/11/22 06:03:39;;;;;;;7.22;2.58;;;;;;;10.37;46.50;102194.25;4425102;32;20064;-70
2021/11/22 06:06:05;;;;;;;10.05;3.10;;;;;;;10.30;46.68;102203.47;4426881;32;20034;-70
2021/11/22 06:08:32;;;;;;;13.05;2.78;;;;;;;9.99;47.20;102204.22;4422912;32;20397;-70
2021/11/22 06:10:57;;;;;;;15.90;4.68;;;;;;;10.14;46.80;102219.94;4425624;32;20082;-70
2021/11/22 06:13:23;;;;;;;9.90;4.00;;;;;;;10.12;47.00;102211.09;4423000;32;20564;-70
2021/11/22 06:15:50;;;;;;;16.92;5.80;;;;;;;10.23;46.87;102230.81;4423488;32;20039;-70
2021/11/22 06:18:19;;;;;;;14.85;5.93;;;;;;;10.32;46.96;102225.59;4425113;32;20071;-70
2021/11/22 06:20:45;;;;;;;18.62;4.87;;;;;;;10.39;46.55;102243.28;4423804;32;20073;-70
2021/11/22 06:23:11;;;;;;;12.40;4.57;;;;;;;10.41;46.87;102240.88;4422638;32;20166;-70
2021/11/22 06:25:37;;;;;;;10.70;2.95;;;;;;;10.36;46.73;102246.06;4426908;32;20046;-70
2021/11/22 06:28:03;;;;;;;14.02;2.97;;;;;;;10.41;46.60;102248.50;4424388;32;20033;-70
2021/11/22 06:30:30;;;;;;;17.10;2.37;;;;;;;10.31;46.83;102255.72;4425496;32;20498;-70
2021/11/22 06:32:56;;;;;;;8.93;2.30;;;;;;;10.42;46.52;102262.19;4423448;32;20125;-70
2021/11/22 06:35:22;;;;;;;8.95;2.83;;;;;;;10.37;46.63;102259.75;4418415;32;20041;-70
2021/11/22 06:37:51;;;;;;;8.68;2.67;;;;;;;10.43;46.52;102258.16;4422426;32;20514;-70
2021/11/22 06:40:17;;;;;;;6.78;2.78;;;;;;;10.62;46.48;102259.78;4424013;32;20491;-70
2021/11/22 06:42:44;;;;;;;9.90;2.53;;;;;;;10.54;46.46;102252.53;4422749;32;20222;-70
2021/11/22 06:45:11;;;;;;;11.48;2.70;;;;;;;10.46;46.67;102260.16;4422530;32;20050;-70
2021/11/22 06:47:36;;;;;;;15.48;2.90;;;;;;;10.45;46.48;102267.00;4421705;32;20083;-70
2021/11/22 06:50:05;;;;;;;12.07;2.92;;;;;;;10.23;46.81;102264.56;4420677;32;20087;-70
2021/11/22 06:52:31;;;;;;;13.15;2.67;;;;;;;10.38;46.53;102263.38;4421637;32;20783;-70
2021/11/22 06:54:57;;;;;;;20.67;4.00;;;;;;;10.28;46.73;102273.41;4421571;32;20041;-70
2021/11/22 06:57:24;;;;;;;10.43;2.50;;;;;;;10.25;46.76;102279.03;4425478;32;20116;-70
2021/11/22 06:59:50;;;;;;;9.80;2.90;;;;;;;10.39;46.84;102284.69;4425204;32;20081;-70
2021/11/22 07:02:16;;;;;;;17.87;3.42;;;;;;;10.22;46.89;102279.84;4423656;32;20077;-70
2021/11/22 07:04:44;;;;;;;10.18;3.47;;;;;;;10.20;46.98;102290.69;4425159;32;20124;-70
2021/11/22 07:07:11;;;;;;;7.80;2.83;;;;;;;10.40;46.84;102289.12;4420614;32;20157;-70
2021/11/22 07:09:37;;;;;;;13.20;2.95;;;;;;;10.29;47.03;102293.91;4423504;32;20675;-70
2021/11/22 07:12:04;;;;;;;20.80;3.42;;;;;;;10.07;47.35;102295.88;4422094;32;20033;-70
2021/11/22 07:14:31;;;;;;;13.62;3.35;;;;;;;10.32;47.14;102287.50;4425515;32;20077;-70
2021/11/22 07:16:56;;;;;;;14.43;3.83;;;;;;;10.30;47.28;102295.50;4422973;32;20457;-70
2021/11/22 07:19:22;;;;;;;14.98;3.95;;;;;;;10.32;47.20;102304.37;4423382;32;20038;-70
2021/11/22 07:21:48;;;;;;;14.07;5.18;;;;;;;10.27;47.32;102296.34;4424946;32;20104;-70
2021/11/22 07:24:14;;;;;;;12.65;4.93;;;;;;;10.36;47.24;102303.19;4427015;32;20087;-70
2021/11/22 07:26:40;;;;;;;12.50;4.85;;;;;;;10.24;47.50;102311.22;4424876;32;20082;-70
2021/11/22 07:29:07;;;;;;;19.30;5.22;;;;;;;10.26;47.60;102303.97;4424575;32;20065;-69
2021/11/22 07:31:32;;;;;;;13.57;4.78;;;;;;;10.41;47.29;102314.06;4428294;32;20045;-70
2021/11/22 07:33:58;;;;;;;13.25;4.43;;;;;;;10.46;47.48;102324.13;4427346;32;20111;-69
2021/11/22 07:36:24;;;;;;;16.45;6.07;;;;;;;10.34;48.01;102327.31;4420745;32;20186;-69
2021/11/22 07:38:50;;;;;;;25.92;6.18;;;;;;;10.40;48.32;102337.75;4426682;32;20465;-69
2021/11/22 07:41:16;;;;;;;27.90;5.93;;;;;;;10.54;47.67;102331.34;4413245;32;20268;-69
2021/11/22 07:43:42;;;;;;;16.73;5.90;;;;;;;10.82;47.38;102337.00;4421112;32;20093;-69
2021/11/22 07:46:08;;;;;;;25.23;6.35;;;;;;;10.75;47.43;102337.00;4413753;32;20086;-69
2021/11/22 07:48:34;;;;;;;22.33;6.25;;;;;;;10.57;47.85;102339.81;4412395;32;20112;-70
2021/11/22 07:51:02;;;;;;;19.80;6.25;;;;;;;10.79;47.38;102337.81;4419626;32;20114;-70
2021/11/22 07:53:29;;;;;;;15.95;5.65;;;;;;;10.97;47.32;102336.62;4418757;32;20362;-70
2021/11/22 07:55:55;;;;;;;16.27;4.80;;;;;;;11.02;47.41;102341.03;4417390;32;20053;-70
2021/11/22 07:58:21;;;;;;;12.15;4.68;;;;;;;11.00;47.84;102337.81;4421361;32;20080;-70
2021/11/22 08:00:47;;;;;;;15.82;5.45;;;;;;;11.17;48.23;102334.97;4415578;32;20104;-70
2021/11/22 08:03:13;;;;;;;22.58;6.37;;;;;;;11.25;48.02;102339.41;4414973;32;20539;-70
2021/11/22 08:05:40;;;;;;;16.08;5.80;;;;;;;11.18;47.30;102355.50;4418291;32;20093;-71
2021/11/22 08:08:05;;;;;;;13.30;5.05;;;;;;;11.27;46.91;102353.91;4412858;32;20150;-70
2021/11/22 08:10:33;;;;;;;17.65;5.20;;;;;;;11.02;46.62;102352.31;4408214;32;20077;-70
2021/11/22 08:13:02;;;;;;;14.63;5.18;;;;;;;11.23;46.69;102353.09;4413679;32;20193;-70
2021/11/22 08:15:29;;;;;;;25.70;7.32;;;;;;;11.35;46.39;102371.63;4416564;32;20081;-70
2021/11/22 08:17:58;;;;;;;18.87;6.05;;;;;;;11.28;46.59;102377.25;4419239;32;20038;-70
2021/11/22 08:20:23;;;;;;;14.75;5.60;;;;;;;11.48;46.18;102379.22;4413687;32;20033;-70
2021/11/22 08:22:51;;;;;;;17.50;5.47;;;;;;;11.41;46.13;102378.44;4414294;32;20608;-70
2021/11/22 08:25:20;;;;;;;15.98;6.18;;;;;;;11.44;46.28;102384.06;4411453;32;20146;-70
2021/11/22 08:27:46;;;;;;;17.10;5.95;;;;;;;11.56;46.29;102389.28;4417293;32;20049;-70
2021/11/22 08:30:16;;;;;;;19.33;6.57;;;;;;;11.50;46.36;102384.44;4418458;32;20071;-70
2021/11/22 08:32:44;;;;;;;22.02;6.50;;;;;;;11.67;45.93;102384.47;4417384;32;20448;-71
2021/11/22 08:35:10;;;;;;;24.40;7.15;;;;;;;11.79;45.85;102386.84;4419325;32;20456;-70
2021/11/22 08:37:38;;;;;;;19.87;7.05;;;;;;;11.87;45.87;102384.81;4416691;32;20060;-70
2021/11/22 08:40:07;;;;;;;24.33;9.05;;;;;;;11.91;45.91;102392.03;4413703;32;20350;-71
2021/11/22 08:42:32;;;;;;;22.85;6.40;;;;;;;12.05;45.77;102396.84;4418660;32;20439;-71
2021/11/22 08:45:00;;;;;;;22.33;6.87;;;;;;;11.95;45.91;102381.56;4415344;32;20081;-71
2021/11/22 08:47:27;;;;;;;26.98;7.18;;;;;;;11.91;45.83;102380.75;4416271;32;20061;-71
2021/11/22 08:49:53;;;;;;;26.92;7.80;;;;;;;12.17;45.70;102384.28;4413170;32;20115;-71
2021/11/22 08:52:20;;;;;;;24.33;6.55;;;;;;;12.26;45.63;102381.81;4412489;32;20108;-71
2021/11/22 08:54:46;;;;;;;18.65;6.47;;;;;;;12.32;45.59;102388.66;4418004;32;20169;-70
2021/11/22 08:57:12;;;;;;;19.75;7.55;;;;;;;12.41;45.64;102392.66;4416764;32;20541;-71
2021/11/22 08:59:38;;;;;;;21.17;6.78;;;;;;;12.69;45.45;102400.94;4418165;32;20041;-71
2021/11/22 09:02:04;;;;;;;29.17;8.05;;;;;;;12.79;45.26;102410.59;4417955;32;20127;-70
2021/11/22 09:04:30;;;;;;;23.35;6.78;;;;;;;13.06;45.15;102401.12;4417198;32;20128;-70
2021/11/22 09:06:57;;;;;;;22.48;7.15;;;;;;;13.40;45.03;102402.03;4415418;32;20707;-71
2021/11/22 09:09:22;;;;;;;26.90;7.50;;;;;;;13.71;44.24;102405.75;4414964;32;20137;-71
2021/11/22 09:11:48;;;;;;;19.80;6.15;;;;;;;14.05;43.82;102406.59;4417823;32;20182;-71
2021/11/22 09:14:15;;;;;;;23.73;8.02;;;;;;;14.48;42.79;102412.56;4418582;32;20103;-71
2021/11/22 09:16:42;;;;;;;17.67;6.70;;;;;;;14.91;42.16;102410.75;4413375;32;20085;-71
2021/11/22 09:19:08;;;;;;;25.15;7.60;;;;;;;15.15;41.28;102413.16;4417333;32;20399;-71
2021/11/22 09:21:34;;;;;;;23.70;8.25;;;;;;;15.52;40.78;102412.16;4413607;32;20130;-71
2021/11/22 09:24:02;;;;;;;16.77;7.00;;;;;;;15.94;40.18;102414.22;4415726;32;20391;-71
2021/11/22 09:26:29;;;;;;;18.42;7.30;;;;;;;16.29;39.46;102419.16;4415852;32;20157;-71
2021/11/22 09:28:56;;;;;;;18.70;6.35;;;;;;;16.45;39.29;102419.28;4415014;32;20089;-71
2021/11/22 09:31:23;;;;;;;18.08;4.55;;;;;;;17.06;38.68;102425.19;4416264;32;20122;-70
2021/11/22 09:33:52;;;;;;;16.90;3.50;;;;;;;17.40;38.03;102417.00;4418192;32;20081;-71
2021/11/22 09:36:18;;;;;;;12.52;4.60;;;;;;;17.64;37.80;102419.22;4417980;32;20102;-71
2021/11/22 09:38:44;;;;;;;13.50;2.30;;;;;;;17.84;36.95;102431.31;4415916;32;20149;-71
2021/11/22 09:41:11;;;;;;;9.00;2.28;;;;;;;18.18;36.49;102430.75;4416649;32;20132;-71
2021/11/22 09:43:42;;;;;;;10.15;2.08;;;;;;;18.80;35.82;102435.84;4416873;32;20049;-71
2021/11/22 09:46:08;;;;;;;12.18;2.40;;;;;;;18.85;35.86;102437.31;4409024;32;20156;-71
2021/11/22 09:48:34;;;;;;;7.45;1.80;;;;;;;19.32;35.36;102427.66;4415318;32;20492;-71
2021/11/22 09:51:01;;;;;;;11.75;1.58;;;;;;;19.58;34.10;102432.03;4407660;32;20141;-71
2021/11/22 09:53:28;;;;;;;7.40;1.98;;;;;;;19.67;34.04;102442.78;4416206;32;20065;-71
2021/11/22 09:55:54;;;;;;;9.98;1.60;;;;;;;19.79;34.11;102439.09;4406555;32;20085;-72
2021/11/22 09:58:20;;;;;;;10.30;1.92;;;;;;;19.83;33.77;102451.19;4419009;32;20122;-71
2021/11/22 10:00:50;;;;;;;10.93;2.80;;;;;;;19.70;33.99;102442.66;4412127;32;20065;-71
2021/11/22 10:06:01;;;;;;;7.45;2.22;;;;;;;20.53;32.74;102453.53;3945988;32;15724601;-70
2021/11/22 10:08:28;;;;;;;7.40;2.17;;;;;;;20.77;32.07;102451.78;4421499;32;20105;-71
2021/11/22 10:10:57;;;;;;;7.80;1.70;;;;;;;21.06;32.06;102452.28;4413895;32;20044;-71
2021/11/22 10:18:42;;;;;;;5.85;1.45;;;;;;;22.53;30.55;102460.22;3969476;32;15022221;-72
2021/11/22 10:21:11;;;;;;;4.03;1.27;;;;;;;22.53;30.55;102460.22;4426130;32;20487;-70
2021/11/22 10:23:40;;;;;;;8.45;1.70;;;;;;;22.31;30.21;102458.75;4428690;32;20085;-72
2021/11/22 10:26:10;;;;;;;9.20;1.62;;;;;;;22.31;29.99;102461.63;4426105;32;20390;-72
2021/11/22 10:28:39;;;;;;;7.00;2.37;;;;;;;21.88;30.31;102451.28;4426991;32;20052;-72
2021/11/22 10:31:10;;;;;;;8.82;1.83;;;;;;;22.24;30.28;102453.34;4430094;32;20438;-72
2021/11/22 10:33:38;;;;;;;11.15;2.10;;;;;;;22.01;30.44;102448.25;4426441;32;20461;-71
2021/11/22 10:36:08;;;;;;;9.10;1.50;;;;;;;21.83;30.83;102451.09;4428158;32;20261;-71
2021/11/22 10:38:37;;;;;;;11.30;2.03;;;;;;;22.23;30.19;102451.75;4428456;32;20527;-70
2021/11/22 10:43:49;;;;;;;9.90;2.05;;;;;;;22.76;29.27;102452.97;3948379;32;15745406;-69
2021/11/22 10:46:16;;;;;;;12.07;2.15;;;;;;;22.76;29.27;102452.97;4411420;32;20126;-72
2021/11/22 10:48:49;;;;;;;10.90;2.25;;;;;;;22.57;29.56;102451.41;4418890;32;20097;-72
2021/11/22 10:51:22;;;;;;;12.40;2.53;;;;;;;22.38;29.86;102449.81;4418029;32;20341;-72
2021/11/22 10:56:27;;;;;;;10.63;2.30;;;;;;;22.34;30.02;102446.31;3968667;32;15024148;-71
2021/11/22 11:04:21;;;;;;;8.90;2.42;;;;;;;23.40;28.77;102445.72;3966469;32;15022029;-72
2021/11/22 11:09:29;;;;;;;7.00;2.22;;;;;;;23.23;28.57;102456.81;3963703;32;15026277;-71
2021/11/22 11:19:57;;;;;;;9.65;2.08;;;;;;;24.83;27.04;102453.69;3969648;32;15020798;-71
2021/11/22 11:22:25;;;;;;;7.95;1.65;;;;;;;24.83;27.04;102453.69;4416009;32;20058;-71
2021/11/22 11:24:51;;;;;;;5.57;2.12;;;;;;;24.35;27.13;102450.16;4416528;32;20078;-71
2021/11/22 11:27:17;;;;;;;11.93;2.10;;;;;;;24.96;26.55;102459.94;4418965;32;20111;-71
2021/11/22 11:29:45;;;;;;;5.60;1.08;;;;;;;25.38;25.99;102454.63;4417596;32;20081;-71
2021/11/22 11:32:11;;;;;;;9.20;1.30;;;;;;;25.72;25.47;102467.44;4417666;32;20090;-71
2021/11/22 11:34:45;;;;;;;8.43;1.60;;;;;;;25.99;24.72;102469.94;4414056;32;20525;-72
2021/11/22 11:43:23;;;;;;;6.62;1.50;;;;;;;27.77;23.16;102494.25;3976462;32;15023057;-70
2021/11/22 11:46:11;;;;;;;8.27;1.83;;;;;;;27.77;23.16;102494.25;4426525;32;20053;-71
2021/11/22 11:49:13;;;;;;;6.45;1.75;;;;;;;26.80;23.63;102483.75;4427598;32;20065;-71
2021/11/22 11:51:41;;;;;;;14.10;1.80;;;;;;;27.17;23.33;102489.59;4429765;32;20130;-71
2021/11/22 12:02:07;;;;;;;5.35;1.37;;;;;;;26.03;24.90;102471.31;3975695;32;15022405;-72
2021/11/22 12:10:26;;;;;;;6.30;1.60;;;;;;;25.77;25.18;102486.91;3976357;32;15023689;-72